createdAt,value
2023-01-19T00:04:04.688Z,12.55
2023-01-19T00:07:09.992Z,11.38
2023-01-19T00:10:13.157Z,11.48
2023-01-19T00:13:16.314Z,11.33
2023-01-19T00:16:23.009Z,12.95
2023-01-19T00:19:25.655Z,14.40
2023-01-19T00:22:28.800Z,13.93
2023-01-19T00:25:31.641Z,13.00
2023-01-19T00:31:38.091Z,12.95
2023-01-19T00:34:42.734Z,12.65
2023-01-19T00:37:46.176Z,12.07
2023-01-19T00:40:50.569Z,11.77
2023-01-19T00:43:55.069Z,12.15
2023-01-19T00:46:58.162Z,12.00
2023-01-19T00:50:00.807Z,12.10
2023-01-19T00:53:03.957Z,12.00
2023-01-19T00:56:07.098Z,11.75
2023-01-19T00:59:11.030Z,11.40
2023-01-19T01:05:17.843Z,11.15
2023-01-19T01:08:20.489Z,11.07
2023-01-19T01:11:23.720Z,10.32
2023-01-19T01:14:26.288Z,9.87
2023-01-19T01:17:29.465Z,8.43
2023-01-19T01:20:34.526Z,8.80
2023-01-19T01:23:39.767Z,8.30
2023-01-19T01:26:42.280Z,7.93
2023-01-19T01:29:48.553Z,7.95
2023-01-19T01:32:51.125Z,7.15
2023-01-19T01:35:54.321Z,7.10
2023-01-19T01:38:57.314Z,6.03
2023-01-19T01:42:00.350Z,6.45
2023-01-19T01:45:07.709Z,6.45
2023-01-19T01:48:18.093Z,6.20
2023-01-19T01:51:46.940Z,6.30
2023-01-19T01:54:50.165Z,4.90
2023-01-19T01:58:01.375Z,4.50
2023-01-19T02:01:24.653Z,5.53
2023-01-19T02:04:32.288Z,4.72
2023-01-19T02:08:15.851Z,4.65
2023-01-19T02:11:37.459Z,3.92
2023-01-19T02:14:40.243Z,3.55
2023-01-19T02:17:43.558Z,3.40
2023-01-19T02:21:08.517Z,3.70
2023-01-19T02:24:11.681Z,3.25
2023-01-19T02:27:15.883Z,3.62
2023-01-19T02:30:19.268Z,2.87
2023-01-19T02:33:22.271Z,2.60
2023-01-19T02:36:30.573Z,2.67
2023-01-19T02:39:39.347Z,2.37
2023-01-19T02:42:53.251Z,1.85
2023-01-19T02:45:56.368Z,2.25
2023-01-19T02:49:00.501Z,1.98
2023-01-19T02:52:04.312Z,1.73
2023-01-19T02:55:22.406Z,1.75
2023-01-19T02:58:44.211Z,1.73
2023-01-19T03:01:54.363Z,1.60
2023-01-19T03:05:17.508Z,1.67
2023-01-19T03:08:26.296Z,1.50
2023-01-19T03:11:35.214Z,1.50
2023-01-19T03:14:43.301Z,1.42
2023-01-19T03:17:49.492Z,1.30
2023-01-19T03:20:55.752Z,1.52
2023-01-19T03:24:03.609Z,1.10
2023-01-19T03:27:30.144Z,1.45
2023-01-19T03:30:40.022Z,0.95
2023-01-19T03:33:48.820Z,1.10
2023-01-19T03:36:59.523Z,1.23
2023-01-19T03:40:02.273Z,0.90
2023-01-19T03:43:06.414Z,1.17
2023-01-19T03:46:11.050Z,0.95
2023-01-19T03:49:14.143Z,1.17
2023-01-19T03:52:17.003Z,1.35
2023-01-19T03:55:19.791Z,0.98
2023-01-19T03:58:22.668Z,1.17
2023-01-19T04:01:25.640Z,2.40
2023-01-19T04:04:28.560Z,8.18
2023-01-19T04:07:31.752Z,1.52
2023-01-19T04:13:38.450Z,1.00
2023-01-19T04:16:41.248Z,1.20
2023-01-19T04:19:45.199Z,1.10
2023-01-19T04:22:49.098Z,1.00
2023-01-19T04:26:00.579Z,0.93
2023-01-19T04:29:03.450Z,1.00
2023-01-19T04:32:06.245Z,0.98
2023-01-19T04:35:09.560Z,1.73
2023-01-19T04:38:12.441Z,4.78
2023-01-19T04:41:15.238Z,1.37
2023-01-19T04:44:18.165Z,1.00
2023-01-19T04:47:20.962Z,0.80
2023-01-19T04:50:23.746Z,0.75
2023-01-19T04:53:26.517Z,0.90
2023-01-19T04:56:29.695Z,0.80
2023-01-19T04:59:32.510Z,0.80
2023-01-19T05:02:35.615Z,0.70
2023-01-19T05:05:38.517Z,0.60
2023-01-19T05:08:41.703Z,0.60
2023-01-19T05:14:47.456Z,0.40
2023-01-19T05:17:50.398Z,0.47
2023-01-19T05:20:53.197Z,0.55
2023-01-19T05:23:56.085Z,0.50
2023-01-19T05:26:59.501Z,0.60
2023-01-19T05:33:05.529Z,0.70
2023-01-19T05:36:08.513Z,0.60
2023-01-19T05:39:11.471Z,0.68
2023-01-19T05:42:14.327Z,0.50
2023-01-19T05:45:17.273Z,0.57
2023-01-19T05:48:20.072Z,0.73
2023-01-19T05:51:22.867Z,0.60
2023-01-19T05:54:25.691Z,0.82
2023-01-19T05:57:28.443Z,0.62
2023-01-19T06:00:31.233Z,0.70
2023-01-19T06:03:35.695Z,0.55
2023-01-19T06:06:38.311Z,0.70
2023-01-19T06:09:41.369Z,0.57
2023-01-19T06:12:44.065Z,0.50
2023-01-19T06:15:47.379Z,1.10
2023-01-19T06:18:50.101Z,0.68
2023-01-19T06:21:53.228Z,0.70
2023-01-19T06:24:55.768Z,0.80
2023-01-19T06:27:58.863Z,1.00
2023-01-19T06:31:01.893Z,1.00
2023-01-19T06:34:05.101Z,1.27
2023-01-19T06:37:07.641Z,1.13
2023-01-19T06:40:13.643Z,1.20
2023-01-19T06:43:17.031Z,1.15
2023-01-19T06:46:20.120Z,1.10
2023-01-19T06:49:22.644Z,1.42
2023-01-19T06:52:25.826Z,1.05
2023-01-19T06:55:28.427Z,1.40
2023-01-19T06:58:32.077Z,1.45
2023-01-19T07:01:35.590Z,1.62
2023-01-19T07:04:38.913Z,2.28
2023-01-19T07:07:43.252Z,2.28
2023-01-19T07:11:23.657Z,2.83
2023-01-19T07:14:08.981Z,2.50
2023-01-19T07:17:12.872Z,3.20
2023-01-19T07:20:15.567Z,3.42
2023-01-19T07:23:18.638Z,3.42
2023-01-19T07:26:22.097Z,3.80
2023-01-19T07:29:25.872Z,4.37
2023-01-19T07:32:29.237Z,4.50
2023-01-19T07:35:32.680Z,4.47
2023-01-19T07:38:35.206Z,4.65
2023-01-19T07:41:38.485Z,4.28
2023-01-19T07:44:41.225Z,4.50
2023-01-19T07:47:45.420Z,3.92
2023-01-19T07:50:48.436Z,3.97
2023-01-19T07:53:51.524Z,4.12
2023-01-19T07:56:55.035Z,4.53
2023-01-19T07:59:58.269Z,4.62
2023-01-19T08:03:02.044Z,4.17
2023-01-19T08:06:06.777Z,4.03
2023-01-19T08:09:10.046Z,4.53
2023-01-19T08:12:13.162Z,4.68
2023-01-19T08:15:15.987Z,4.50
2023-01-19T08:21:21.556Z,4.85
2023-01-19T08:24:29.235Z,4.65
2023-01-19T08:27:31.847Z,4.30
2023-01-19T08:30:35.820Z,3.97
2023-01-19T08:33:38.387Z,4.30
2023-01-19T08:36:41.524Z,4.57
2023-01-19T08:39:44.024Z,4.75
2023-01-19T08:42:47.125Z,4.50
2023-01-19T08:45:53.682Z,5.20
2023-01-19T08:48:56.973Z,5.20
2023-01-19T08:51:59.564Z,5.32
2023-01-19T08:55:02.751Z,5.05
2023-01-19T08:58:07.921Z,5.47
2023-01-19T09:01:17.063Z,4.75
2023-01-19T09:04:19.840Z,4.97
2023-01-19T09:07:23.030Z,5.68
2023-01-19T09:10:25.525Z,5.23
2023-01-19T09:13:28.874Z,5.18
2023-01-19T09:16:31.473Z,5.40
2023-01-19T09:19:35.146Z,6.05
2023-01-19T09:22:39.689Z,5.53
2023-01-19T09:25:45.229Z,5.97
2023-01-19T09:28:48.041Z,6.53
2023-01-19T09:31:51.315Z,6.20
2023-01-19T09:34:55.105Z,5.90
2023-01-19T09:37:59.194Z,5.68
2023-01-19T09:41:02.034Z,5.60
2023-01-19T09:44:05.544Z,5.62
2023-01-19T09:47:15.302Z,5.55
2023-01-19T09:50:28.710Z,4.72
2023-01-19T09:53:59.588Z,4.83
2023-01-19T09:57:02.952Z,5.45
2023-01-19T10:00:16.085Z,4.95
2023-01-19T10:06:23.606Z,4.87
2023-01-19T10:09:56.029Z,5.30
2023-01-19T10:13:08.249Z,6.87
2023-01-19T10:16:25.665Z,7.97
2023-01-19T10:19:43.724Z,8.77
2023-01-19T10:22:49.803Z,9.20
2023-01-19T10:25:53.069Z,9.48
2023-01-19T10:29:02.948Z,9.95
2023-01-19T10:32:17.437Z,9.07
2023-01-19T10:35:25.760Z,9.57
2023-01-19T10:38:30.428Z,8.90
2023-01-19T10:41:42.665Z,9.73
2023-01-19T10:44:46.035Z,9.38
2023-01-19T10:47:49.804Z,8.73
2023-01-19T10:51:03.065Z,8.98
2023-01-19T10:54:13.196Z,9.38
2023-01-19T10:57:28.054Z,9.02
2023-01-19T11:00:38.812Z,8.25
2023-01-19T11:03:41.725Z,8.63
2023-01-19T11:06:44.843Z,8.77
2023-01-19T11:09:48.636Z,8.30
2023-01-19T11:12:55.605Z,7.22
2023-01-19T11:16:05.350Z,8.25
2023-01-19T11:19:21.779Z,8.00
2023-01-19T11:22:33.212Z,8.10
2023-01-19T11:25:37.267Z,7.60
2023-01-19T11:31:49.253Z,6.65
2023-01-19T11:34:51.854Z,7.65
2023-01-19T11:38:11.661Z,6.85
2023-01-19T11:41:24.779Z,7.10
2023-01-19T11:44:32.692Z,7.80
2023-01-19T11:47:49.719Z,7.35
2023-01-19T11:50:54.550Z,8.10
2023-01-19T11:53:57.262Z,8.95
2023-01-19T12:00:17.532Z,8.75
2023-01-19T12:03:39.645Z,8.52
2023-01-19T12:06:47.837Z,9.65
2023-01-19T12:10:01.126Z,9.70
2023-01-19T12:13:04.334Z,9.20
2023-01-19T12:16:13.726Z,9.02
2023-01-19T12:19:22.462Z,10.30
2023-01-19T12:22:29.120Z,10.20
2023-01-19T12:25:40.613Z,10.23
2023-01-19T12:28:47.352Z,10.25
2023-01-19T12:32:14.900Z,10.38
2023-01-19T12:36:00.912Z,11.18
2023-01-19T12:39:16.901Z,10.93
2023-01-19T12:42:21.466Z,11.15
2023-01-19T12:45:29.369Z,11.10
2023-01-19T12:48:32.952Z,9.93
2023-01-19T12:51:36.918Z,10.88
2023-01-19T12:54:49.546Z,10.35
2023-01-19T12:58:00.956Z,10.10
2023-01-19T13:01:19.980Z,9.77
2023-01-19T13:04:33.962Z,10.27
2023-01-19T13:08:02.287Z,9.93
2023-01-19T13:11:10.785Z,10.27
2023-01-19T13:14:36.976Z,10.35
2023-01-19T13:17:51.154Z,11.50
2023-01-19T13:21:04.588Z,10.15
2023-01-19T13:24:10.588Z,10.40
2023-01-19T13:27:14.008Z,9.55
2023-01-19T13:30:27.643Z,10.18
2023-01-19T13:33:40.860Z,10.27
2023-01-19T13:36:51.733Z,10.55
2023-01-19T13:39:55.699Z,10.25
2023-01-19T13:46:04.252Z,10.48
2023-01-19T13:49:26.238Z,9.95
2023-01-19T13:52:29.725Z,10.77
2023-01-19T13:55:32.334Z,10.88
2023-01-19T13:58:35.654Z,11.38
2023-01-19T14:01:41.154Z,11.88
2023-01-19T14:04:44.558Z,11.43
2023-01-19T14:07:47.473Z,12.27
2023-01-19T14:10:56.524Z,11.63
2023-01-19T14:13:59.253Z,11.35
2023-01-19T14:17:02.571Z,12.23
2023-01-19T14:20:05.773Z,15.38
2023-01-19T14:23:40.830Z,15.07
2023-01-19T14:26:48.433Z,11.25
2023-01-19T14:29:54.875Z,12.07
2023-01-19T14:32:57.429Z,12.40
2023-01-19T14:36:20.096Z,13.02
2023-01-19T14:39:26.382Z,12.65
2023-01-19T14:42:35.861Z,13.02
2023-01-19T14:45:41.382Z,13.70
2023-01-19T14:48:49.172Z,13.57
2023-01-19T14:51:52.153Z,13.30
2023-01-19T14:57:58.625Z,19.25
2023-01-19T15:01:02.722Z,13.90
2023-01-19T15:04:05.338Z,14.50
2023-01-19T15:07:17.084Z,14.55
2023-01-19T15:10:22.630Z,13.88
2023-01-19T15:13:27.510Z,15.27
2023-01-19T15:16:34.189Z,15.15
2023-01-19T15:19:37.435Z,15.90
2023-01-19T15:22:40.105Z,14.80
2023-01-19T15:25:43.239Z,16.05
2023-01-19T15:28:47.008Z,16.47
2023-01-19T15:31:50.917Z,16.48
2023-01-19T15:37:56.857Z,15.63
2023-01-19T15:40:59.720Z,16.73
2023-01-19T15:47:07.622Z,15.48
2023-01-19T15:50:11.242Z,15.40
2023-01-19T15:53:19.381Z,16.60
2023-01-19T15:56:28.425Z,16.02
2023-01-19T15:59:31.061Z,16.35
2023-01-19T16:02:34.259Z,16.45
2023-01-19T16:05:42.981Z,16.80
2023-01-19T16:08:46.241Z,18.45
2023-01-19T16:11:49.317Z,17.83
2023-01-19T16:14:52.224Z,19.23
2023-01-19T16:17:55.148Z,19.15
2023-01-19T16:20:58.204Z,18.23
2023-01-19T16:24:01.041Z,18.85
2023-01-19T16:27:04.114Z,19.20
2023-01-19T16:30:07.749Z,18.98
2023-01-19T16:33:11.757Z,16.87
2023-01-19T16:36:19.940Z,16.92
2023-01-19T16:39:22.974Z,19.05
2023-01-19T16:42:26.042Z,17.00
2023-01-19T16:45:28.863Z,16.45
2023-01-19T16:48:34.972Z,17.00
2023-01-19T16:51:38.510Z,16.87
2023-01-19T16:54:43.100Z,17.77
2023-01-19T16:57:45.986Z,15.98
2023-01-19T17:00:49.085Z,15.02
2023-01-19T17:03:52.140Z,15.38
2023-01-19T17:06:55.507Z,16.90
2023-01-19T17:09:58.880Z,16.50
2023-01-19T17:13:03.986Z,15.13
2023-01-19T17:16:07.705Z,15.15
2023-01-19T17:19:15.669Z,15.23
2023-01-19T17:22:21.430Z,15.25
2023-01-19T17:25:24.305Z,15.20
2023-01-19T17:28:27.671Z,15.13
2023-01-19T17:31:32.260Z,15.30
2023-01-19T17:34:35.254Z,15.43
2023-01-19T17:37:38.075Z,15.95
2023-01-19T17:40:41.022Z,15.48
2023-01-19T17:43:44.590Z,15.32
2023-01-19T17:46:47.472Z,15.35
2023-01-19T17:49:50.367Z,15.02
2023-01-19T17:52:53.185Z,15.05
2023-01-19T17:55:55.953Z,14.75
2023-01-19T17:58:59.397Z,15.02
2023-01-19T18:05:05.719Z,13.02
2023-01-19T18:11:13.342Z,13.50
2023-01-19T18:14:16.048Z,14.00
2023-01-19T18:17:19.668Z,13.43
2023-01-19T18:20:22.194Z,14.18
2023-01-19T18:23:25.813Z,14.15
2023-01-19T18:26:29.310Z,14.38
2023-01-19T18:29:32.518Z,14.85
2023-01-19T18:32:36.105Z,14.57
2023-01-19T18:35:39.633Z,13.60
2023-01-19T18:38:42.763Z,13.80
2023-01-19T18:41:45.844Z,20.80
2023-01-19T18:44:48.419Z,14.33
2023-01-19T18:47:51.531Z,15.10
2023-01-19T18:50:54.260Z,13.43
2023-01-19T18:53:58.694Z,12.65
2023-01-19T18:57:01.271Z,12.95
2023-01-19T19:00:05.877Z,13.90
2023-01-19T19:03:10.373Z,13.23
2023-01-19T19:06:14.692Z,12.77
2023-01-19T19:09:17.254Z,12.80
2023-01-19T19:12:20.986Z,12.57
2023-01-19T19:15:23.937Z,13.30
2023-01-19T19:21:29.393Z,14.02
2023-01-19T19:24:32.660Z,13.40
2023-01-19T19:27:35.693Z,13.88
2023-01-19T19:30:39.314Z,15.13
2023-01-19T19:33:42.017Z,14.13
2023-01-19T19:36:45.245Z,14.82
2023-01-19T19:39:48.145Z,18.08
2023-01-19T19:46:01.223Z,14.32
2023-01-19T19:49:04.417Z,14.38
2023-01-19T19:52:06.999Z,15.80
2023-01-19T19:55:10.971Z,14.50
2023-01-19T19:58:13.532Z,14.38
2023-01-19T20:01:24.131Z,14.70
2023-01-19T20:04:28.981Z,14.10
2023-01-19T20:07:32.013Z,13.62
2023-01-19T20:10:34.946Z,13.40
2023-01-19T20:13:39.204Z,12.65
2023-01-19T20:16:43.074Z,13.45
2023-01-19T20:19:47.640Z,14.02
2023-01-19T20:22:50.465Z,13.25
2023-01-19T20:25:53.295Z,13.45
2023-01-19T20:29:03.013Z,13.85
2023-01-19T20:32:07.985Z,13.70
2023-01-19T20:35:11.274Z,13.13
2023-01-19T20:41:17.769Z,12.23
2023-01-19T20:44:23.125Z,12.70
2023-01-19T20:47:25.956Z,12.93
2023-01-19T20:50:28.894Z,12.40
2023-01-19T20:53:32.169Z,13.13
2023-01-19T20:56:35.115Z,16.40
2023-01-19T20:59:38.918Z,16.25
2023-01-19T21:02:41.785Z,13.43
2023-01-19T21:05:48.492Z,14.55
2023-01-19T21:08:51.911Z,14.18
2023-01-19T21:11:57.299Z,14.63
2023-01-19T21:15:00.546Z,14.27
2023-01-19T21:18:03.741Z,14.75
2023-01-19T21:21:09.108Z,14.55
2023-01-19T21:24:13.827Z,14.95
2023-01-19T21:27:16.712Z,16.08
2023-01-19T21:30:19.730Z,15.57
2023-01-19T21:33:22.944Z,15.30
2023-01-19T21:36:26.302Z,15.10
2023-01-19T21:39:29.137Z,16.23
2023-01-19T21:42:31.940Z,15.65
2023-01-19T21:45:34.778Z,15.65
2023-01-19T21:48:37.760Z,15.63
2023-01-19T21:51:40.609Z,17.05
2023-01-19T21:54:43.681Z,16.33
2023-01-19T21:57:46.553Z,15.63
2023-01-19T22:00:50.334Z,16.45
2023-01-19T22:03:57.548Z,15.65
2023-01-19T22:07:00.111Z,16.70
2023-01-19T22:10:04.315Z,18.25
2023-01-19T22:13:07.739Z,17.00
2023-01-19T22:16:14.351Z,16.60
2023-01-19T22:19:17.037Z,14.90
2023-01-19T22:22:20.202Z,14.48
2023-01-19T22:25:27.775Z,14.50
2023-01-19T22:28:31.304Z,15.02
2023-01-19T22:31:34.037Z,14.87
2023-01-19T22:34:37.228Z,16.20
2023-01-19T22:37:39.757Z,13.67
2023-01-19T22:40:42.860Z,13.38
2023-01-19T22:43:45.757Z,13.65
2023-01-19T22:49:52.641Z,14.38
2023-01-19T22:52:55.864Z,15.40
2023-01-19T22:55:58.353Z,14.25
2023-01-19T22:59:07.873Z,14.98
2023-01-19T23:02:12.369Z,14.57
2023-01-19T23:05:15.985Z,15.02
2023-01-19T23:08:18.716Z,14.13
2023-01-19T23:11:24.793Z,14.40
2023-01-19T23:14:27.324Z,13.80
2023-01-19T23:17:30.396Z,13.98
2023-01-19T23:20:32.928Z,13.73
2023-01-19T23:23:36.377Z,13.07
2023-01-19T23:26:39.467Z,12.50
2023-01-19T23:29:42.696Z,12.13
2023-01-19T23:32:49.714Z,12.50
2023-01-19T23:35:55.545Z,11.45
2023-01-19T23:39:01.221Z,12.15
2023-01-19T23:42:05.155Z,11.52
2023-01-19T23:45:08.399Z,12.32
2023-01-19T23:48:11.476Z,11.65
2023-01-19T23:51:25.561Z,12.93
2023-01-19T23:54:28.743Z,13.07
2023-01-19T23:57:31.268Z,13.77
